Nearby METAR Reports

 

KRNT - Renton, Washington, USA
Distance from station: WNW 10mi, 17km
Updated: Fri, 24-Nov-2017 2:53pm PST
Overcast
Overcast
 Wind from SE
Wind: SE 7 mph , 11 km/h
Temperature: 52°F , 11°C
Dew Point: 41°F , 5°C
Humidity: 67%
Barometer: 30.06 inHg , 1017.9 hPa
Clouds: Overcast
Visibility: 10 miles , 16 km
Cloud details: Overcast 4600 ft
2017/11/24 22:53 KRNT 242253Z 14006KT 10SM OVC046 11/05 A3006 RMK AO2 RAE2155 SLP185 P0000 T01110050
KSEA - Seattle/Metro, Washington, USA
Distance from station: W 14mi, 23km
Updated: Fri, 24-Nov-2017 3:53pm PST
Overcast
Overcast
 Wind from S
Wind: S 7 mph , 11 km/h
Temperature: 50°F , 10°C
Wind Chill: 47°F , 8°C
Dew Point: 43°F , 6°C
Humidity: 76%
Barometer: 30.07 inHg , 1018.3 hPa
Clouds: Overcast
Visibility: 10 miles , 16 km
Cloud details: Partly cloudy 3600 ft
Overcast 5000 ft
2017/11/24 23:53 KSEA 242353Z 18006KT 10SM SCT036 OVC050 10/06 A3007 RMK AO2 RAB13E26 SLP189 P0000 60000 T01000056 10111 20100 55004
 
KBFI - Seattle/Boeing, Washington, USA
Distance from station: WNW 16mi, 26km
Updated: Fri, 24-Nov-2017 3:53pm PST
Overcast
Overcast
 Wind from S
Wind: S 10 mph , 17 km/h
Temperature: 52°F , 11°C
Dew Point: 43°F , 6°C
Humidity: 72%
Barometer: 30.07 inHg , 1018.3 hPa
Clouds: Overcast
Visibility: 10 miles , 16 km
Cloud details: Mostly cloudy 4700 ft
Overcast 5500 ft
2017/11/24 23:53 KBFI 242353Z 17009KT 10SM BKN047 OVC055 11/06 A3007 RMK AO2 SLP183 60000 T01060056 10117 20106 55005
KPLU - Puyallup/Thun, Washington, USA
Distance from station: SSW 27mi, 43km
Updated: Fri, 24-Nov-2017 3:35pm PST
Mostly cloudy
Mostly cloudy
 Wind from varies
Wind: varies 6 mph , 9 km/h
Temperature: 52°F , 11°C
Dew Point: 43°F , 6°C
Humidity: 72%
Barometer: 30.07 inHg , 1018.3 hPa
Clouds: Mostly cloudy
Visibility: 10 miles , 16 km
Cloud details: Mostly cloudy 7000 ft
Mostly cloudy 7500 ft
2017/11/24 23:35 KPLU 242335Z AUTO VRB05KT 10SM BKN070 BKN075 11/06 A3007 RMK AO2
 
KTIW - Tacoma, Washington, USA
Distance from station: WSW 29mi, 47km
Updated: Fri, 24-Nov-2017 3:53pm PST
Overcast
Overcast
 Wind from SSW
Wind: SSW 7 mph , 11 km/h
Temperature: 48°F , 9°C
Wind Chill: 45°F , 7°C
Dew Point: 45°F , 7°C
Humidity: 87%
Barometer: 30.07 inHg , 1018.3 hPa
Clouds: Overcast
Visibility: 10 miles , 16 km
Cloud details: Overcast 5000 ft
2017/11/24 23:53 KTIW 242353Z 20006KT 10SM OVC050 09/07 A3007 RMK AO2 RAB02E33 SLP185 P0000 60001 T00890067 10100 20083 55005
KTCM - Tacoma/Mc Chord, Washington, USA
Distance from station: SW 31mi, 50km
Updated: Fri, 24-Nov-2017 2:58pm PST
Mostly cloudy
Mostly cloudy
 Wind from S
Wind: S 6 mph , 9 km/h
Temperature: 50°F , 10°C
Wind Chill: 48°F , 9°C
Dew Point: 46°F , 8°C
Humidity: 88%
Barometer: 30.07 inHg , 1018.3 hPa
Clouds: Mostly cloudy
Visibility: 10 miles , 16 km
Cloud details: Mostly cloudy 6000 ft
2017/11/24 22:58 KTCM 242258Z AUTO 19005KT 10SM BKN060 10/08 A3007 RMK AO2 SLP188 T00990082 $
 
KPAE - Everett, Washington, USA
Distance from station: NNW 35mi, 56km
Updated: Fri, 24-Nov-2017 3:53pm PST
Overcast
Overcast
 Wind from SE
Wind: SE 15 mph , 24 km/h
Temperature: 48°F , 9°C
Wind Chill: 42°F , 6°C
Dew Point: 39°F , 4°C
Humidity: 71%
Barometer: 30.05 inHg , 1017.6 hPa
Clouds: Overcast
Visibility: 10 miles , 16 km
Cloud details: Partly cloudy 2800 ft
Overcast 3500 ft
2017/11/24 23:53 KPAE 242353Z 13013KT 10SM SCT028 OVC035 09/04 A3005 RMK AO2 SLP176 T00890044 10094 20083 58003
KPWT - Bremerton Ntnl, Washington, USA
Distance from station: W 35mi, 56km
Updated: Fri, 24-Nov-2017 3:15pm PST
Overcast
Overcast
 Wind from SSW
Wind: SSW 10 mph , 17 km/h
Temperature: 46°F , 8°C
Wind Chill: 41°F , 5°C
Dew Point: 45°F , 7°C
Humidity: 93%
Barometer: 30.05 inHg , 1017.6 hPa
Clouds: Overcast
Visibility: 10 miles , 16 km
Cloud details: Mostly cloudy 800 ft
Mostly cloudy 2700 ft
Overcast 3200 ft
2017/11/24 23:15 KPWT 242315Z AUTO 20009KT 10SM BKN008 BKN027 OVC032 08/07 A3005 RMK AO2 RAE2257 CIG 007V011 P0001
 
KGRF - Fort Lewis/Gray, Washington, USA
Distance from station: SW 37mi, 59km
Updated: Fri, 24-Nov-2017 2:58pm PST
Few Clouds
Few Clouds
 Wind from SSE
Wind: SSE 7 mph , 11 km/h
Temperature: 50°F , 10°C
Wind Chill: 47°F , 8°C
Dew Point: 48°F , 9°C
Humidity: 94%
Barometer: 30.06 inHg , 1017.9 hPa
Clouds: Few Clouds
Visibility: 10 miles , 16 km
Cloud details: Few Clouds 7000 ft
2017/11/24 22:58 KGRF 242258Z AUTO 15006KT 10SM FEW070 10/09 A3006 RMK AO2 SLP184 T00990093 $